Terminal Aerodrome Forecast
Issued by NWS

Home | Current Version | Previous Version | Text Only | Print | Product List | Glossary On
Versions: 1 2 3 4 5 6 7 8 9 10 11 12 13 14 15 16 17 18 19 20 21 22 23 24 25 26 27 28 29 30 31 32 33 34 35 36 37 38 39 40 41 42 43 44 45 46 47 48 49 50
353
FTUS43 KMKX 050520
TAFENW
TAF
KENW 050520Z 0506/0606 36010KT P6SM SCT040 BKN080
     FM051100 36010KT P6SM SCT070
     FM051500 01010KT P6SM FEW030 SCT200
     FM052000 03007KT P6SM FEW040 SCT200
     FM060400 VRB03KT P6SM SCT120 BKN250=

USA.gov is the U.S. government's official web portal to all federal, state and local government web resources and services.